Carson, California
Current Conditions -  °F | °C
As of 3:49 PM on Wednesday 28 Jan 2015 (Local Time) from KTOA Reporting Station
Overcast Overcast  
Wind Chill: 64°   Ceiling: 20000
Heat Index: 64°   Visibility: 10mi
Dew Point: 55°   Wind: 12mph
Humidity: 73%   Direction: 300°WNW
Pressure: 30.08"   Gusts: NA
Location:  33.83°N, 118.26°W
Report Text: KTOA 282349Z 30010KT 10SM OVC200 18/13 A3008
Loading
Personal Weather Stations






























Interactive Weather Map New forecast layout! Learn more

10-Day Weather Forecast

Advertisements
Track Severe Weather on mobile